createdAt,value
2023-03-04T00:03:31.591Z,91.50
2023-03-04T00:08:33.746Z,91.50
2023-03-04T00:13:36.001Z,91.00
2023-03-04T00:18:47.061Z,91.10
2023-03-04T00:23:49.334Z,91.20
2023-03-04T00:28:51.275Z,91.10
2023-03-04T00:33:53.132Z,91.80
2023-03-04T00:38:54.974Z,91.40
2023-03-04T00:43:56.803Z,91.80
2023-03-04T00:48:58.647Z,92.00
2023-03-04T00:54:00.984Z,92.00
2023-03-04T00:59:02.953Z,92.20
2023-03-04T01:04:04.880Z,92.80
2023-03-04T01:09:06.838Z,92.70
2023-03-04T01:14:08.677Z,92.80
2023-03-04T01:19:10.902Z,93.10
2023-03-04T01:24:13.835Z,93.10
2023-03-04T01:29:15.702Z,92.50
2023-03-04T01:34:18.134Z,92.20
2023-03-04T01:39:20.043Z,93.10
2023-03-04T01:44:22.096Z,93.30
2023-03-04T01:49:23.953Z,93.10
2023-03-04T01:54:26.328Z,93.20
2023-03-04T01:59:31.485Z,93.60
2023-03-04T02:04:34.472Z,93.40
2023-03-04T02:09:36.586Z,93.20
2023-03-04T02:14:38.954Z,93.20
2023-03-04T02:20:05.222Z,93.80
2023-03-04T02:25:16.008Z,93.80
2023-03-04T02:30:22.047Z,93.60
2023-03-04T02:35:24.027Z,93.80
2023-03-04T02:40:30.249Z,94.20
2023-03-04T02:45:37.076Z,94.40
2023-03-04T02:50:46.071Z,93.70
2023-03-04T02:55:48.370Z,93.00
2023-03-04T03:00:50.312Z,92.70
2023-03-04T03:05:54.079Z,92.70
2023-03-04T03:10:55.955Z,92.60
2023-03-04T03:15:57.869Z,92.90
2023-03-04T03:20:59.726Z,92.70
2023-03-04T03:26:02.570Z,92.90
2023-03-04T03:31:04.588Z,92.20
2023-03-04T03:36:07.215Z,92.40
2023-03-04T03:41:09.140Z,93.10
2023-03-04T03:46:11.014Z,92.80
2023-03-04T03:51:12.892Z,92.90
2023-03-04T03:56:14.787Z,93.20
2023-03-04T04:01:16.635Z,93.00
2023-03-04T04:06:18.580Z,92.60
2023-03-04T04:11:20.454Z,93.70
2023-03-04T04:16:22.301Z,93.60
2023-03-04T04:21:24.319Z,93.60
2023-03-04T04:26:29.824Z,93.70
2023-03-04T04:31:31.703Z,93.90
2023-03-04T04:36:33.607Z,93.90
2023-03-04T04:41:38.576Z,93.70
2023-03-04T04:46:40.960Z,93.30
2023-03-04T04:51:42.903Z,93.20
2023-03-04T04:56:44.733Z,93.20
2023-03-04T05:01:46.743Z,93.40
2023-03-04T05:06:48.607Z,93.40
2023-03-04T05:11:50.573Z,93.60
2023-03-04T05:16:53.074Z,93.60
2023-03-04T05:21:54.952Z,93.70
2023-03-04T05:26:57.157Z,93.90
2023-03-04T05:31:59.028Z,93.70
2023-03-04T05:37:00.910Z,93.80
2023-03-04T05:42:02.819Z,93.80
2023-03-04T05:47:04.637Z,93.40
2023-03-04T05:52:06.512Z,93.40
2023-03-04T05:57:08.401Z,93.40
2023-03-04T06:02:10.234Z,93.50
2023-03-04T06:07:12.060Z,93.50
2023-03-04T06:12:13.952Z,93.90
2023-03-04T06:17:15.902Z,93.80
2023-03-04T06:22:17.751Z,94.00
2023-03-04T06:27:19.667Z,94.00
2023-03-04T06:32:21.545Z,93.90
2023-03-04T06:37:23.739Z,93.80
2023-03-04T06:42:25.634Z,94.10
2023-03-04T06:47:27.973Z,93.60
2023-03-04T06:52:29.814Z,94.00
2023-03-04T06:57:32.195Z,96.20
2023-03-04T07:02:34.095Z,97.50
2023-03-04T07:07:35.938Z,96.80
2023-03-04T07:12:37.760Z,95.80
2023-03-04T07:17:39.825Z,95.10
2023-03-04T07:22:41.696Z,94.10
2023-03-04T07:27:43.805Z,93.50
2023-03-04T07:32:45.681Z,93.00
2023-03-04T07:37:47.906Z,92.40
2023-03-04T07:42:51.676Z,91.90
2023-03-04T07:47:54.210Z,91.30
2023-03-04T07:52:56.118Z,90.90
2023-03-04T07:57:58.126Z,90.70
2023-03-04T08:02:59.954Z,90.50
2023-03-04T08:08:01.770Z,90.00
2023-03-04T08:13:03.661Z,87.20
2023-03-04T08:18:05.508Z,86.90
2023-03-04T08:23:07.493Z,83.70
2023-03-04T08:28:10.521Z,82.00
2023-03-04T08:33:12.431Z,81.60
2023-03-04T08:38:19.875Z,81.10
2023-03-04T08:43:23.825Z,80.00
2023-03-04T08:48:25.688Z,80.70
2023-03-04T08:53:27.885Z,79.00
2023-03-04T08:58:29.801Z,79.40
2023-03-04T09:03:31.794Z,78.50
2023-03-04T09:08:34.308Z,77.70
2023-03-04T09:13:36.539Z,75.30
2023-03-04T09:18:39.752Z,73.70
2023-03-04T09:23:42.049Z,73.40
2023-03-04T09:28:45.257Z,71.10
2023-03-04T09:33:49.471Z,71.70
2023-03-04T09:38:51.413Z,71.20
2023-03-04T09:43:53.989Z,71.40
2023-03-04T09:48:56.784Z,69.40
2023-03-04T09:54:01.254Z,67.60
2023-03-04T09:59:32.666Z,67.70
2023-03-04T10:04:40.736Z,64.00
2023-03-04T10:09:54.180Z,60.90
2023-03-04T10:15:05.138Z,59.00
2023-03-04T10:20:19.878Z,59.20
2023-03-04T10:25:33.050Z,57.90
2023-03-04T10:30:56.824Z,58.90
2023-03-04T10:36:05.206Z,57.40
2023-03-04T10:41:14.294Z,56.90
2023-03-04T10:46:18.314Z,56.80
2023-03-04T10:51:25.352Z,57.40
2023-03-04T10:56:54.464Z,52.50
2023-03-04T11:02:02.081Z,51.50
2023-03-04T11:07:11.277Z,49.30
2023-03-04T11:12:15.632Z,49.10
2023-03-04T11:17:29.288Z,47.10
2023-03-04T11:22:31.645Z,47.70
2023-03-04T11:27:38.826Z,46.00
2023-03-04T11:32:44.335Z,46.30
2023-03-04T11:37:50.976Z,45.00
2023-03-04T11:42:59.740Z,44.60
2023-03-04T11:48:09.397Z,44.80
2023-03-04T11:53:32.337Z,43.80
2023-03-04T11:58:55.972Z,43.70
2023-03-04T12:04:03.562Z,43.90
2023-03-04T12:09:23.703Z,44.30
2023-03-04T12:14:30.457Z,44.90
2023-03-04T12:20:17.119Z,44.30
2023-03-04T12:25:27.235Z,43.00
2023-03-04T12:30:58.382Z,42.90
2023-03-04T12:36:12.265Z,43.50
2023-03-04T12:41:19.819Z,46.30
2023-03-04T12:46:34.036Z,49.50
2023-03-04T12:51:45.038Z,45.50
2023-03-04T12:56:54.994Z,45.00
2023-03-04T13:02:13.713Z,45.80
2023-03-04T13:07:37.359Z,50.90
2023-03-04T13:12:56.356Z,48.00
2023-03-04T13:18:24.347Z,46.60
2023-03-04T13:23:28.582Z,50.70
2023-03-04T13:28:35.638Z,52.20
2023-03-04T13:33:37.416Z,53.10
2023-03-04T13:38:39.405Z,54.00
2023-03-04T13:43:44.785Z,55.60
2023-03-04T13:48:49.581Z,56.80
2023-03-04T13:53:54.808Z,57.30
2023-03-04T13:59:02.651Z,57.50
2023-03-04T14:04:20.804Z,57.60
2023-03-04T14:09:25.434Z,58.60
2023-03-04T14:14:42.907Z,59.70
2023-03-04T14:19:46.693Z,60.20
2023-03-04T14:25:02.345Z,61.10
2023-03-04T14:30:08.191Z,61.10
2023-03-04T14:35:24.149Z,61.20
2023-03-04T14:40:28.987Z,61.60
2023-03-04T14:45:31.185Z,62.00
2023-03-04T14:50:34.518Z,62.50
2023-03-04T14:55:37.558Z,62.70
2023-03-04T15:00:43.210Z,62.70
2023-03-04T15:05:45.109Z,63.10
2023-03-04T15:10:56.583Z,63.10
2023-03-04T15:16:02.358Z,63.70
2023-03-04T15:21:32.797Z,64.60
2023-03-04T15:26:39.030Z,64.10
2023-03-04T15:31:43.651Z,64.90
2023-03-04T15:36:50.462Z,64.90
2023-03-04T15:41:52.285Z,65.40
2023-03-04T15:46:54.176Z,65.60
2023-03-04T15:51:56.154Z,66.20
2023-03-04T15:57:00.147Z,66.40
2023-03-04T16:02:02.014Z,66.90
2023-03-04T16:07:04.016Z,67.20
2023-03-04T16:12:06.278Z,67.70
2023-03-04T16:17:09.629Z,68.10
2023-03-04T16:22:20.434Z,68.60
2023-03-04T16:27:23.904Z,69.00
2023-03-04T16:32:25.782Z,69.30
2023-03-04T16:37:27.615Z,70.00
2023-03-04T16:42:29.723Z,69.90
2023-03-04T16:47:31.545Z,70.80
2023-03-04T16:52:34.712Z,71.70
2023-03-04T16:57:37.594Z,72.00
2023-03-04T17:02:39.462Z,73.50
2023-03-04T17:07:41.365Z,73.10
2023-03-04T17:12:43.734Z,73.50
2023-03-04T17:17:45.786Z,74.40
2023-03-04T17:22:47.615Z,74.40
2023-03-04T17:27:50.585Z,74.40
2023-03-04T17:32:52.516Z,74.70
2023-03-04T17:37:54.332Z,75.50
2023-03-04T17:42:57.036Z,76.00
2023-03-04T17:47:58.895Z,76.10
2023-03-04T17:53:00.786Z,76.70
2023-03-04T17:58:02.618Z,76.50
2023-03-04T18:03:04.504Z,77.20
2023-03-04T18:08:06.470Z,77.20
2023-03-04T18:13:08.674Z,77.10
2023-03-04T18:18:10.539Z,77.70
2023-03-04T18:23:12.356Z,77.70
2023-03-04T18:28:14.170Z,78.00
2023-03-04T18:33:16.126Z,78.10
2023-03-04T18:38:17.984Z,77.90
2023-03-04T18:43:20.063Z,79.00
2023-03-04T18:48:21.952Z,78.60
2023-03-04T18:53:27.156Z,78.90
2023-03-04T18:58:30.737Z,79.10
2023-03-04T19:03:34.489Z,79.80
2023-03-04T19:08:36.637Z,79.80
2023-03-04T19:13:38.440Z,79.80
2023-03-04T19:18:40.240Z,80.10
2023-03-04T19:23:42.142Z,80.40
2023-03-04T19:28:44.008Z,80.40
2023-03-04T19:33:45.819Z,80.50
2023-03-04T19:38:47.628Z,80.90
2023-03-04T19:43:50.357Z,81.10
2023-03-04T19:48:52.633Z,81.40
2023-03-04T19:53:55.416Z,81.50
2023-03-04T19:58:57.935Z,82.00
2023-03-04T20:04:18.130Z,82.10
2023-03-04T20:09:21.338Z,82.60
2023-03-04T20:14:23.210Z,82.70
2023-03-04T20:19:25.142Z,83.20
2023-03-04T20:24:28.326Z,82.90
2023-03-04T20:29:30.295Z,83.50
2023-03-04T20:34:32.520Z,84.30
2023-03-04T20:39:34.324Z,84.40
2023-03-04T20:44:36.508Z,84.50
2023-03-04T20:49:38.859Z,84.70
2023-03-04T20:54:40.977Z,85.00
2023-03-04T20:59:42.895Z,85.10
2023-03-04T21:04:44.818Z,84.90
2023-03-04T21:09:49.459Z,85.40
2023-03-04T21:14:51.393Z,85.30
2023-03-04T21:19:54.365Z,85.50
2023-03-04T21:24:56.349Z,85.20
2023-03-04T21:29:58.183Z,85.70
2023-03-04T21:35:00.044Z,85.80
2023-03-04T21:40:03.139Z,85.80
2023-03-04T21:45:07.287Z,85.90
2023-03-04T21:50:09.704Z,85.90
2023-03-04T21:55:12.429Z,85.90
2023-03-04T22:00:15.631Z,85.90
2023-03-04T22:05:19.070Z,86.10
2023-03-04T22:10:21.091Z,86.10
2023-03-04T22:15:22.924Z,86.50
2023-03-04T22:20:25.594Z,86.50
2023-03-04T22:25:27.967Z,86.80
2023-03-04T22:30:31.545Z,86.90
2023-03-04T22:35:33.548Z,86.80
2023-03-04T22:40:36.472Z,86.90
2023-03-04T22:45:38.534Z,86.70
2023-03-04T22:50:40.803Z,86.90
2023-03-04T22:55:42.644Z,86.70
2023-03-04T23:00:48.425Z,86.60
2023-03-04T23:06:06.357Z,86.60
2023-03-04T23:11:10.339Z,87.50
2023-03-04T23:16:13.102Z,86.90
2023-03-04T23:21:21.749Z,87.20
2023-03-04T23:26:26.476Z,87.30
2023-03-04T23:31:32.101Z,88.10
2023-03-04T23:36:38.662Z,87.70
2023-03-04T23:41:40.785Z,87.80
2023-03-04T23:46:42.747Z,87.70
2023-03-04T23:51:45.458Z,87.70
2023-03-04T23:56:49.242Z,88.10
